sensor_id;sensor_type;location;lat;lon;timestamp;P1;durP1;ratioP1;P2;durP2;ratioP2
18320;SDS011;54904;54.350;18.664;2023-08-12T00:01:17;1.30;;;1.20;;
18320;SDS011;54904;54.350;18.664;2023-08-12T00:03:46;1.40;;;1.10;;
18320;SDS011;54904;54.350;18.664;2023-08-12T00:06:13;1.60;;;1.05;;
18320;SDS011;54904;54.350;18.664;2023-08-12T00:08:40;1.35;;;1.25;;
18320;SDS011;54904;54.350;18.664;2023-08-12T00:11:07;2.42;;;1.30;;
18320;SDS011;54904;54.350;18.664;2023-08-12T00:13:35;2.03;;;1.25;;
18320;SDS011;54904;54.350;18.664;2023-08-12T00:16:03;1.52;;;1.20;;
18320;SDS011;54904;54.350;18.664;2023-08-12T00:18:31;1.17;;;1.08;;
18320;SDS011;54904;54.350;18.664;2023-08-12T00:21:03;1.02;;;0.93;;
18320;SDS011;54904;54.350;18.664;2023-08-12T00:23:38;2.05;;;0.77;;
18320;SDS011;54904;54.350;18.664;2023-08-12T00:26:09;1.45;;;1.00;;
18320;SDS011;54904;54.350;18.664;2023-08-12T00:28:37;2.55;;;1.40;;
18320;SDS011;54904;54.350;18.664;2023-08-12T00:31:05;0.85;;;0.85;;
18320;SDS011;54904;54.350;18.664;2023-08-12T00:33:32;1.25;;;1.15;;
18320;SDS011;54904;54.350;18.664;2023-08-12T00:35:59;1.90;;;1.40;;
18320;SDS011;54904;54.350;18.664;2023-08-12T00:38:28;1.85;;;0.90;;
18320;SDS011;54904;54.350;18.664;2023-08-12T00:40:55;1.15;;;0.90;;
18320;SDS011;54904;54.350;18.664;2023-08-12T00:43:23;1.02;;;0.90;;
18320;SDS011;54904;54.350;18.664;2023-08-12T00:45:50;2.05;;;0.82;;
18320;SDS011;54904;54.350;18.664;2023-08-12T00:48:19;1.20;;;1.00;;
18320;SDS011;54904;54.350;18.664;2023-08-12T00:50:47;1.45;;;0.95;;
18320;SDS011;54904;54.350;18.664;2023-08-12T00:53:14;1.52;;;1.00;;
18320;SDS011;54904;54.350;18.664;2023-08-12T00:55:42;1.00;;;1.00;;
18320;SDS011;54904;54.350;18.664;2023-08-12T00:58:09;1.35;;;1.25;;
18320;SDS011;54904;54.350;18.664;2023-08-12T01:00:40;1.15;;;0.98;;
18320;SDS011;54904;54.350;18.664;2023-08-12T01:03:07;1.83;;;1.10;;
18320;SDS011;54904;54.350;18.664;2023-08-12T01:05:38;1.95;;;1.25;;
18320;SDS011;54904;54.350;18.664;2023-08-12T01:08:06;1.45;;;0.90;;
18320;SDS011;54904;54.350;18.664;2023-08-12T01:10:35;1.98;;;1.05;;
18320;SDS011;54904;54.350;18.664;2023-08-12T01:13:09;1.50;;;0.90;;
18320;SDS011;54904;54.350;18.664;2023-08-12T01:15:48;1.92;;;1.10;;
18320;SDS011;54904;54.350;18.664;2023-08-12T01:18:19;1.33;;;1.05;;
18320;SDS011;54904;54.350;18.664;2023-08-12T01:20:51;2.65;;;1.05;;
18320;SDS011;54904;54.350;18.664;2023-08-12T01:23:22;2.97;;;1.10;;
18320;SDS011;54904;54.350;18.664;2023-08-12T01:25:49;1.08;;;1.02;;
18320;SDS011;54904;54.350;18.664;2023-08-12T01:28:16;1.33;;;1.10;;
18320;SDS011;54904;54.350;18.664;2023-08-12T01:30:45;1.65;;;1.15;;
18320;SDS011;54904;54.350;18.664;2023-08-12T01:33:19;1.52;;;1.00;;
18320;SDS011;54904;54.350;18.664;2023-08-12T01:35:53;2.10;;;1.20;;
18320;SDS011;54904;54.350;18.664;2023-08-12T01:38:31;0.70;;;0.70;;
18320;SDS011;54904;54.350;18.664;2023-08-12T01:41:01;1.05;;;0.95;;
18320;SDS011;54904;54.350;18.664;2023-08-12T01:43:28;1.63;;;0.80;;
18320;SDS011;54904;54.350;18.664;2023-08-12T01:45:56;0.75;;;0.75;;
18320;SDS011;54904;54.350;18.664;2023-08-12T01:48:24;0.82;;;0.82;;
18320;SDS011;54904;54.350;18.664;2023-08-12T01:50:51;3.25;;;0.90;;
18320;SDS011;54904;54.350;18.664;2023-08-12T01:53:18;0.82;;;0.80;;
18320;SDS011;54904;54.350;18.664;2023-08-12T01:55:48;1.70;;;0.90;;
18320;SDS011;54904;54.350;18.664;2023-08-12T01:58:16;1.23;;;0.73;;
18320;SDS011;54904;54.350;18.664;2023-08-12T02:00:43;1.38;;;1.10;;
18320;SDS011;54904;54.350;18.664;2023-08-12T02:03:10;0.80;;;0.80;;
18320;SDS011;54904;54.350;18.664;2023-08-12T02:05:37;2.38;;;0.93;;
18320;SDS011;54904;54.350;18.664;2023-08-12T02:08:06;1.05;;;0.95;;
18320;SDS011;54904;54.350;18.664;2023-08-12T02:10:34;1.20;;;0.80;;
18320;SDS011;54904;54.350;18.664;2023-08-12T02:13:02;1.13;;;0.88;;
18320;SDS011;54904;54.350;18.664;2023-08-12T02:15:30;1.85;;;0.98;;
18320;SDS011;54904;54.350;18.664;2023-08-12T02:17:58;1.15;;;1.00;;
18320;SDS011;54904;54.350;18.664;2023-08-12T02:20:25;0.60;;;0.60;;
18320;SDS011;54904;54.350;18.664;2023-08-12T02:22:55;1.92;;;0.95;;
18320;SDS011;54904;54.350;18.664;2023-08-12T02:25:22;1.98;;;0.98;;
18320;SDS011;54904;54.350;18.664;2023-08-12T02:27:49;1.38;;;1.10;;
18320;SDS011;54904;54.350;18.664;2023-08-12T02:30:17;2.25;;;1.25;;
18320;SDS011;54904;54.350;18.664;2023-08-12T02:32:44;1.38;;;1.05;;
18320;SDS011;54904;54.350;18.664;2023-08-12T02:35:12;1.38;;;0.82;;
18320;SDS011;54904;54.350;18.664;2023-08-12T02:37:39;1.42;;;0.75;;
18320;SDS011;54904;54.350;18.664;2023-08-12T02:40:06;0.80;;;0.80;;
18320;SDS011;54904;54.350;18.664;2023-08-12T02:42:35;0.80;;;0.70;;
18320;SDS011;54904;54.350;18.664;2023-08-12T02:45:03;1.27;;;0.90;;
18320;SDS011;54904;54.350;18.664;2023-08-12T02:47:32;0.80;;;0.80;;
18320;SDS011;54904;54.350;18.664;2023-08-12T02:49:59;1.80;;;1.08;;
18320;SDS011;54904;54.350;18.664;2023-08-12T02:52:27;1.15;;;1.02;;
18320;SDS011;54904;54.350;18.664;2023-08-12T02:54:54;1.95;;;1.00;;
18320;SDS011;54904;54.350;18.664;2023-08-12T02:57:21;1.20;;;1.05;;
18320;SDS011;54904;54.350;18.664;2023-08-12T02:59:48;1.75;;;0.90;;
18320;SDS011;54904;54.350;18.664;2023-08-12T03:02:15;1.45;;;1.00;;
18320;SDS011;54904;54.350;18.664;2023-08-12T03:04:44;1.40;;;1.17;;
18320;SDS011;54904;54.350;18.664;2023-08-12T03:07:11;1.33;;;0.75;;
18320;SDS011;54904;54.350;18.664;2023-08-12T03:09:38;2.83;;;1.30;;
18320;SDS011;54904;54.350;18.664;2023-08-12T03:12:07;0.80;;;0.80;;
18320;SDS011;54904;54.350;18.664;2023-08-12T03:14:34;0.98;;;0.98;;
18320;SDS011;54904;54.350;18.664;2023-08-12T03:17:01;2.55;;;1.00;;
18320;SDS011;54904;54.350;18.664;2023-08-12T03:19:30;3.05;;;1.10;;
18320;SDS011;54904;54.350;18.664;2023-08-12T03:21:59;1.25;;;0.90;;
18320;SDS011;54904;54.350;18.664;2023-08-12T03:24:26;2.63;;;0.90;;
18320;SDS011;54904;54.350;18.664;2023-08-12T03:26:56;0.70;;;0.70;;
18320;SDS011;54904;54.350;18.664;2023-08-12T03:29:23;1.20;;;1.08;;
18320;SDS011;54904;54.350;18.664;2023-08-12T03:31:51;1.38;;;0.85;;
18320;SDS011;54904;54.350;18.664;2023-08-12T03:34:19;2.58;;;1.27;;
18320;SDS011;54904;54.350;18.664;2023-08-12T03:36:46;1.85;;;0.98;;
18320;SDS011;54904;54.350;18.664;2023-08-12T03:39:17;2.45;;;1.30;;
18320;SDS011;54904;54.350;18.664;2023-08-12T03:41:45;1.63;;;0.90;;
18320;SDS011;54904;54.350;18.664;2023-08-12T03:44:12;1.10;;;0.95;;
18320;SDS011;54904;54.350;18.664;2023-08-12T03:46:39;2.00;;;1.13;;
18320;SDS011;54904;54.350;18.664;2023-08-12T03:49:06;1.40;;;1.17;;
18320;SDS011;54904;54.350;18.664;2023-08-12T03:51:33;1.65;;;1.40;;
18320;SDS011;54904;54.350;18.664;2023-08-12T03:54:00;3.45;;;1.38;;
18320;SDS011;54904;54.350;18.664;2023-08-12T03:56:28;2.55;;;1.25;;
18320;SDS011;54904;54.350;18.664;2023-08-12T03:58:56;2.38;;;1.30;;
18320;SDS011;54904;54.350;18.664;2023-08-12T04:01:23;1.98;;;1.20;;
18320;SDS011;54904;54.350;18.664;2023-08-12T04:03:50;2.33;;;1.23;;
18320;SDS011;54904;54.350;18.664;2023-08-12T04:06:17;2.88;;;1.10;;
18320;SDS011;54904;54.350;18.664;2023-08-12T04:08:44;2.55;;;1.30;;
18320;SDS011;54904;54.350;18.664;2023-08-12T04:11:12;2.47;;;1.10;;
18320;SDS011;54904;54.350;18.664;2023-08-12T04:13:41;2.15;;;1.30;;
18320;SDS011;54904;54.350;18.664;2023-08-12T04:16:11;3.55;;;1.20;;
18320;SDS011;54904;54.350;18.664;2023-08-12T04:18:38;2.47;;;1.30;;
18320;SDS011;54904;54.350;18.664;2023-08-12T04:21:05;3.22;;;1.40;;
18320;SDS011;54904;54.350;18.664;2023-08-12T04:23:32;2.88;;;1.30;;
18320;SDS011;54904;54.350;18.664;2023-08-12T04:26:00;1.80;;;1.70;;
18320;SDS011;54904;54.350;18.664;2023-08-12T04:28:27;1.30;;;1.20;;
18320;SDS011;54904;54.350;18.664;2023-08-12T04:30:56;2.05;;;1.50;;
18320;SDS011;54904;54.350;18.664;2023-08-12T04:33:24;1.70;;;1.15;;
18320;SDS011;54904;54.350;18.664;2023-08-12T04:35:52;3.13;;;1.20;;
18320;SDS011;54904;54.350;18.664;2023-08-12T04:38:20;1.40;;;0.95;;
18320;SDS011;54904;54.350;18.664;2023-08-12T04:40:49;3.13;;;1.42;;
18320;SDS011;54904;54.350;18.664;2023-08-12T04:43:18;2.05;;;1.30;;
18320;SDS011;54904;54.350;18.664;2023-08-12T04:45:46;2.28;;;1.50;;
18320;SDS011;54904;54.350;18.664;2023-08-12T04:48:18;4.60;;;2.13;;
18320;SDS011;54904;54.350;18.664;2023-08-12T04:50:45;3.65;;;1.85;;
18320;SDS011;54904;54.350;18.664;2023-08-12T04:53:12;3.55;;;1.83;;
18320;SDS011;54904;54.350;18.664;2023-08-12T04:55:39;2.15;;;1.98;;
18320;SDS011;54904;54.350;18.664;2023-08-12T04:58:06;2.70;;;1.90;;
18320;SDS011;54904;54.350;18.664;2023-08-12T05:00:34;3.22;;;2.05;;
18320;SDS011;54904;54.350;18.664;2023-08-12T05:03:01;3.30;;;1.55;;
18320;SDS011;54904;54.350;18.664;2023-08-12T05:05:31;3.60;;;1.67;;
18320;SDS011;54904;54.350;18.664;2023-08-12T05:07:58;3.85;;;2.25;;
18320;SDS011;54904;54.350;18.664;2023-08-12T05:10:26;7.20;;;2.65;;
18320;SDS011;54904;54.350;18.664;2023-08-12T05:12:53;5.38;;;2.80;;
18320;SDS011;54904;54.350;18.664;2023-08-12T05:15:25;3.67;;;2.83;;
18320;SDS011;54904;54.350;18.664;2023-08-12T05:17:52;2.38;;;2.17;;
18320;SDS011;54904;54.350;18.664;2023-08-12T05:20:21;2.65;;;2.45;;
18320;SDS011;54904;54.350;18.664;2023-08-12T05:22:50;3.05;;;2.47;;
18320;SDS011;54904;54.350;18.664;2023-08-12T05:25:17;3.17;;;2.33;;
18320;SDS011;54904;54.350;18.664;2023-08-12T05:27:44;2.35;;;2.15;;
18320;SDS011;54904;54.350;18.664;2023-08-12T05:30:14;4.53;;;2.50;;
18320;SDS011;54904;54.350;18.664;2023-08-12T05:32:41;2.42;;;2.13;;
18320;SDS011;54904;54.350;18.664;2023-08-12T05:35:08;1.92;;;1.77;;
18320;SDS011;54904;54.350;18.664;2023-08-12T05:37:35;2.00;;;1.48;;
18320;SDS011;54904;54.350;18.664;2023-08-12T05:40:04;1.85;;;1.55;;
18320;SDS011;54904;54.350;18.664;2023-08-12T05:42:33;1.90;;;1.67;;
18320;SDS011;54904;54.350;18.664;2023-08-12T05:45:00;3.90;;;2.45;;
18320;SDS011;54904;54.350;18.664;2023-08-12T05:47:27;2.83;;;2.20;;
18320;SDS011;54904;54.350;18.664;2023-08-12T05:49:54;2.10;;;1.77;;
18320;SDS011;54904;54.350;18.664;2023-08-12T05:52:21;4.35;;;2.00;;
18320;SDS011;54904;54.350;18.664;2023-08-12T05:54:48;2.10;;;2.00;;
18320;SDS011;54904;54.350;18.664;2023-08-12T05:57:17;4.30;;;1.52;;
18320;SDS011;54904;54.350;18.664;2023-08-12T05:59:44;2.88;;;1.65;;
18320;SDS011;54904;54.350;18.664;2023-08-12T06:02:11;4.90;;;1.85;;
18320;SDS011;54904;54.350;18.664;2023-08-12T06:04:38;4.85;;;1.63;;
18320;SDS011;54904;54.350;18.664;2023-08-12T06:07:05;3.08;;;1.73;;
18320;SDS011;54904;54.350;18.664;2023-08-12T06:09:32;2.85;;;1.50;;
18320;SDS011;54904;54.350;18.664;2023-08-12T06:11:59;2.60;;;2.00;;
18320;SDS011;54904;54.350;18.664;2023-08-12T06:14:28;2.35;;;1.77;;
18320;SDS011;54904;54.350;18.664;2023-08-12T06:16:55;4.68;;;1.85;;
18320;SDS011;54904;54.350;18.664;2023-08-12T06:19:22;2.08;;;1.80;;
18320;SDS011;54904;54.350;18.664;2023-08-12T06:21:49;2.55;;;1.80;;
18320;SDS011;54904;54.350;18.664;2023-08-12T06:24:16;2.38;;;1.90;;
18320;SDS011;54904;54.350;18.664;2023-08-12T06:26:43;7.63;;;1.90;;
18320;SDS011;54904;54.350;18.664;2023-08-12T06:29:10;2.42;;;1.67;;
18320;SDS011;54904;54.350;18.664;2023-08-12T06:31:38;4.18;;;2.20;;
18320;SDS011;54904;54.350;18.664;2023-08-12T06:34:05;3.17;;;2.10;;
18320;SDS011;54904;54.350;18.664;2023-08-12T06:36:32;2.17;;;1.67;;
18320;SDS011;54904;54.350;18.664;2023-08-12T06:38:59;1.95;;;1.67;;
18320;SDS011;54904;54.350;18.664;2023-08-12T06:41:26;2.83;;;2.17;;
18320;SDS011;54904;54.350;18.664;2023-08-12T06:43:53;2.83;;;1.52;;
18320;SDS011;54904;54.350;18.664;2023-08-12T06:46:20;3.25;;;1.60;;
18320;SDS011;54904;54.350;18.664;2023-08-12T06:48:49;3.38;;;1.60;;
18320;SDS011;54904;54.350;18.664;2023-08-12T06:51:16;2.47;;;1.75;;
18320;SDS011;54904;54.350;18.664;2023-08-12T06:53:43;3.22;;;1.70;;
18320;SDS011;54904;54.350;18.664;2023-08-12T06:56:10;3.15;;;2.45;;
18320;SDS011;54904;54.350;18.664;2023-08-12T06:58:37;3.63;;;1.50;;
18320;SDS011;54904;54.350;18.664;2023-08-12T07:01:04;4.07;;;2.00;;
18320;SDS011;54904;54.350;18.664;2023-08-12T07:03:31;3.28;;;1.80;;
18320;SDS011;54904;54.350;18.664;2023-08-12T07:06:00;3.47;;;1.63;;
18320;SDS011;54904;54.350;18.664;2023-08-12T07:08:27;3.80;;;1.85;;
18320;SDS011;54904;54.350;18.664;2023-08-12T07:10:54;1.70;;;1.60;;
18320;SDS011;54904;54.350;18.664;2023-08-12T07:13:21;1.50;;;1.40;;
18320;SDS011;54904;54.350;18.664;2023-08-12T07:15:48;2.53;;;1.92;;
18320;SDS011;54904;54.350;18.664;2023-08-12T07:18:15;2.38;;;1.92;;
18320;SDS011;54904;54.350;18.664;2023-08-12T07:20:42;3.10;;;2.10;;
18320;SDS011;54904;54.350;18.664;2023-08-12T07:23:10;2.28;;;1.92;;
18320;SDS011;54904;54.350;18.664;2023-08-12T07:25:37;1.95;;;1.52;;
18320;SDS011;54904;54.350;18.664;2023-08-12T07:28:05;1.50;;;1.40;;
18320;SDS011;54904;54.350;18.664;2023-08-12T07:30:33;1.63;;;1.52;;
18320;SDS011;54904;54.350;18.664;2023-08-12T07:33:01;2.70;;;1.70;;
18320;SDS011;54904;54.350;18.664;2023-08-12T07:35:28;2.72;;;1.88;;
18320;SDS011;54904;54.350;18.664;2023-08-12T07:37:55;1.55;;;1.45;;
18320;SDS011;54904;54.350;18.664;2023-08-12T07:40:23;2.70;;;1.70;;
18320;SDS011;54904;54.350;18.664;2023-08-12T07:42:50;1.50;;;1.40;;
18320;SDS011;54904;54.350;18.664;2023-08-12T07:45:18;2.65;;;1.50;;
18320;SDS011;54904;54.350;18.664;2023-08-12T07:47:45;2.10;;;1.65;;
18320;SDS011;54904;54.350;18.664;2023-08-12T07:50:12;1.67;;;1.25;;
18320;SDS011;54904;54.350;18.664;2023-08-12T07:52:39;1.50;;;1.40;;
18320;SDS011;54904;54.350;18.664;2023-08-12T07:55:06;1.85;;;1.40;;
18320;SDS011;54904;54.350;18.664;2023-08-12T07:57:35;2.50;;;1.40;;
18320;SDS011;54904;54.350;18.664;2023-08-12T08:00:02;2.30;;;1.30;;
18320;SDS011;54904;54.350;18.664;2023-08-12T08:02:30;1.33;;;1.23;;
18320;SDS011;54904;54.350;18.664;2023-08-12T08:04:57;3.05;;;1.13;;
18320;SDS011;54904;54.350;18.664;2023-08-12T08:07:24;2.05;;;1.20;;
18320;SDS011;54904;54.350;18.664;2023-08-12T08:09:51;2.15;;;1.58;;
18320;SDS011;54904;54.350;18.664;2023-08-12T08:12:18;1.80;;;1.23;;
18320;SDS011;54904;54.350;18.664;2023-08-12T08:14:47;5.55;;;1.65;;
18320;SDS011;54904;54.350;18.664;2023-08-12T08:17:14;3.33;;;1.80;;
18320;SDS011;54904;54.350;18.664;2023-08-12T08:19:41;2.67;;;1.30;;
18320;SDS011;54904;54.350;18.664;2023-08-12T08:22:08;3.40;;;1.60;;
18320;SDS011;54904;54.350;18.664;2023-08-12T08:24:35;2.97;;;1.30;;
18320;SDS011;54904;54.350;18.664;2023-08-12T08:27:02;2.25;;;1.30;;
18320;SDS011;54904;54.350;18.664;2023-08-12T08:29:30;3.15;;;1.40;;
18320;SDS011;54904;54.350;18.664;2023-08-12T08:31:58;1.85;;;1.48;;
18320;SDS011;54904;54.350;18.664;2023-08-12T08:34:25;2.85;;;1.77;;
18320;SDS011;54904;54.350;18.664;2023-08-12T08:36:52;3.75;;;1.90;;
18320;SDS011;54904;54.350;18.664;2023-08-12T08:39:19;3.05;;;1.80;;
18320;SDS011;54904;54.350;18.664;2023-08-12T08:41:47;3.22;;;1.60;;
18320;SDS011;54904;54.350;18.664;2023-08-12T08:44:15;2.20;;;1.55;;
18320;SDS011;54904;54.350;18.664;2023-08-12T08:46:43;1.50;;;1.40;;
18320;SDS011;54904;54.350;18.664;2023-08-12T08:49:12;1.40;;;1.30;;
18320;SDS011;54904;54.350;18.664;2023-08-12T08:51:41;1.23;;;1.15;;
18320;SDS011;54904;54.350;18.664;2023-08-12T08:54:10;3.08;;;1.67;;
18320;SDS011;54904;54.350;18.664;2023-08-12T08:56:38;1.67;;;1.17;;
18320;SDS011;54904;54.350;18.664;2023-08-12T08:59:05;3.17;;;1.70;;
18320;SDS011;54904;54.350;18.664;2023-08-12T09:01:32;1.38;;;1.25;;
18320;SDS011;54904;54.350;18.664;2023-08-12T09:04:02;1.77;;;1.30;;
18320;SDS011;54904;54.350;18.664;2023-08-12T09:06:31;2.53;;;1.50;;
18320;SDS011;54904;54.350;18.664;2023-08-12T09:08:59;2.20;;;1.42;;
18320;SDS011;54904;54.350;18.664;2023-08-12T09:11:28;2.90;;;1.52;;
18320;SDS011;54904;54.350;18.664;2023-08-12T09:13:56;2.75;;;1.77;;
18320;SDS011;54904;54.350;18.664;2023-08-12T09:16:23;1.40;;;1.30;;
18320;SDS011;54904;54.350;18.664;2023-08-12T09:18:53;1.67;;;1.58;;
18320;SDS011;54904;54.350;18.664;2023-08-12T09:21:21;2.17;;;2.00;;
18320;SDS011;54904;54.350;18.664;2023-08-12T09:23:50;1.33;;;1.23;;
18320;SDS011;54904;54.350;18.664;2023-08-12T09:26:18;2.22;;;1.60;;
18320;SDS011;54904;54.350;18.664;2023-08-12T09:28:46;1.75;;;1.65;;
18320;SDS011;54904;54.350;18.664;2023-08-12T09:31:21;1.50;;;1.40;;
18320;SDS011;54904;54.350;18.664;2023-08-12T09:33:50;1.10;;;1.10;;
18320;SDS011;54904;54.350;18.664;2023-08-12T09:36:17;1.75;;;1.30;;
18320;SDS011;54904;54.350;18.664;2023-08-12T09:38:47;3.25;;;1.88;;
18320;SDS011;54904;54.350;18.664;2023-08-12T09:41:17;2.08;;;1.80;;
18320;SDS011;54904;54.350;18.664;2023-08-12T09:43:44;3.72;;;1.85;;
18320;SDS011;54904;54.350;18.664;2023-08-12T09:46:11;2.10;;;1.58;;
18320;SDS011;54904;54.350;18.664;2023-08-12T09:48:41;1.70;;;1.30;;
18320;SDS011;54904;54.350;18.664;2023-08-12T09:51:09;2.38;;;1.30;;
18320;SDS011;54904;54.350;18.664;2023-08-12T09:53:37;2.15;;;1.48;;
18320;SDS011;54904;54.350;18.664;2023-08-12T09:56:05;1.90;;;1.38;;
18320;SDS011;54904;54.350;18.664;2023-08-12T09:58:36;1.27;;;1.20;;
18320;SDS011;54904;54.350;18.664;2023-08-12T10:01:04;1.70;;;1.58;;
18320;SDS011;54904;54.350;18.664;2023-08-12T10:03:32;1.52;;;1.42;;
18320;SDS011;54904;54.350;18.664;2023-08-12T10:06:01;2.03;;;1.55;;
18320;SDS011;54904;54.350;18.664;2023-08-12T10:08:28;1.80;;;1.70;;
18320;SDS011;54904;54.350;18.664;2023-08-12T10:10:56;1.38;;;1.27;;
18320;SDS011;54904;54.350;18.664;2023-08-12T10:13:23;2.22;;;1.50;;
18320;SDS011;54904;54.350;18.664;2023-08-12T10:15:52;1.58;;;1.48;;
18320;SDS011;54904;54.350;18.664;2023-08-12T10:18:19;1.40;;;1.30;;
18320;SDS011;54904;54.350;18.664;2023-08-12T10:20:48;1.70;;;1.25;;
18320;SDS011;54904;54.350;18.664;2023-08-12T10:23:16;2.33;;;1.50;;
18320;SDS011;54904;54.350;18.664;2023-08-12T10:25:44;1.48;;;1.38;;
18320;SDS011;54904;54.350;18.664;2023-08-12T10:28:11;1.42;;;1.33;;
18320;SDS011;54904;54.350;18.664;2023-08-12T10:30:39;1.58;;;1.40;;
18320;SDS011;54904;54.350;18.664;2023-08-12T10:33:09;1.67;;;1.58;;
18320;SDS011;54904;54.350;18.664;2023-08-12T10:35:40;1.90;;;1.40;;
18320;SDS011;54904;54.350;18.664;2023-08-12T10:38:09;1.98;;;1.45;;
18320;SDS011;54904;54.350;18.664;2023-08-12T10:40:38;1.90;;;1.67;;
18320;SDS011;54904;54.350;18.664;2023-08-12T10:43:05;2.15;;;1.30;;
18320;SDS011;54904;54.350;18.664;2023-08-12T10:45:42;1.35;;;1.30;;
18320;SDS011;54904;54.350;18.664;2023-08-12T10:48:17;1.83;;;1.55;;
18320;SDS011;54904;54.350;18.664;2023-08-12T10:50:46;1.77;;;1.67;;
18320;SDS011;54904;54.350;18.664;2023-08-12T10:53:23;1.80;;;1.60;;
18320;SDS011;54904;54.350;18.664;2023-08-12T10:55:55;1.38;;;1.27;;
18320;SDS011;54904;54.350;18.664;2023-08-12T10:58:27;1.55;;;1.40;;
18320;SDS011;54904;54.350;18.664;2023-08-12T11:00:56;1.10;;;1.10;;
18320;SDS011;54904;54.350;18.664;2023-08-12T11:03:25;3.70;;;1.33;;
18320;SDS011;54904;54.350;18.664;2023-08-12T11:05:53;2.80;;;1.35;;
18320;SDS011;54904;54.350;18.664;2023-08-12T11:08:25;3.25;;;1.90;;
18320;SDS011;54904;54.350;18.664;2023-08-12T11:10:54;1.63;;;1.52;;
18320;SDS011;54904;54.350;18.664;2023-08-12T11:13:23;1.45;;;1.40;;
18320;SDS011;54904;54.350;18.664;2023-08-12T11:15:54;1.50;;;1.40;;
18320;SDS011;54904;54.350;18.664;2023-08-12T11:18:34;1.10;;;1.10;;
18320;SDS011;54904;54.350;18.664;2023-08-12T11:21:03;1.63;;;1.50;;
18320;SDS011;54904;54.350;18.664;2023-08-12T11:23:30;2.38;;;1.60;;
18320;SDS011;54904;54.350;18.664;2023-08-12T11:25:58;1.60;;;1.50;;
18320;SDS011;54904;54.350;18.664;2023-08-12T11:28:27;2.00;;;1.20;;
18320;SDS011;54904;54.350;18.664;2023-08-12T11:30:54;1.23;;;1.20;;
18320;SDS011;54904;54.350;18.664;2023-08-12T11:33:22;2.08;;;1.58;;
18320;SDS011;54904;54.350;18.664;2023-08-12T11:35:51;1.52;;;1.42;;
18320;SDS011;54904;54.350;18.664;2023-08-12T11:38:19;2.47;;;1.25;;
18320;SDS011;54904;54.350;18.664;2023-08-12T11:40:46;1.35;;;1.02;;
18320;SDS011;54904;54.350;18.664;2023-08-12T11:43:13;1.48;;;1.30;;
18320;SDS011;54904;54.350;18.664;2023-08-12T11:45:41;1.60;;;1.50;;
18320;SDS011;54904;54.350;18.664;2023-08-12T11:48:09;1.20;;;1.20;;
18320;SDS011;54904;54.350;18.664;2023-08-12T11:50:36;1.40;;;1.30;;
18320;SDS011;54904;54.350;18.664;2023-08-12T11:53:06;1.48;;;1.10;;
18320;SDS011;54904;54.350;18.664;2023-08-12T11:55:33;1.75;;;1.65;;
18320;SDS011;54904;54.350;18.664;2023-08-12T11:58:00;1.40;;;1.25;;
18320;SDS011;54904;54.350;18.664;2023-08-12T12:00:27;2.08;;;1.70;;
18320;SDS011;54904;54.350;18.664;2023-08-12T12:02:54;1.85;;;1.75;;
18320;SDS011;54904;54.350;18.664;2023-08-12T12:05:23;1.20;;;1.20;;
18320;SDS011;54904;54.350;18.664;2023-08-12T12:07:52;2.45;;;1.40;;
18320;SDS011;54904;54.350;18.664;2023-08-12T12:10:25;3.13;;;1.67;;
18320;SDS011;54904;54.350;18.664;2023-08-12T12:12:54;1.70;;;1.60;;
18320;SDS011;54904;54.350;18.664;2023-08-12T12:15:21;2.22;;;1.58;;
18320;SDS011;54904;54.350;18.664;2023-08-12T12:17:49;1.60;;;1.50;;
18320;SDS011;54904;54.350;18.664;2023-08-12T12:20:17;1.67;;;1.35;;
18320;SDS011;54904;54.350;18.664;2023-08-12T12:22:44;2.13;;;1.75;;
18320;SDS011;54904;54.350;18.664;2023-08-12T12:25:12;1.58;;;1.48;;
18320;SDS011;54904;54.350;18.664;2023-08-12T12:27:42;1.85;;;1.75;;
18320;SDS011;54904;54.350;18.664;2023-08-12T12:30:12;3.30;;;2.15;;
18320;SDS011;54904;54.350;18.664;2023-08-12T12:32:40;2.35;;;2.17;;
18320;SDS011;54904;54.350;18.664;2023-08-12T12:35:07;1.70;;;1.60;;
18320;SDS011;54904;54.350;18.664;2023-08-12T12:37:34;2.08;;;1.85;;
18320;SDS011;54904;54.350;18.664;2023-08-12T12:40:02;2.03;;;1.80;;
18320;SDS011;54904;54.350;18.664;2023-08-12T12:42:30;1.98;;;1.80;;
18320;SDS011;54904;54.350;18.664;2023-08-12T12:44:58;3.92;;;1.90;;
18320;SDS011;54904;54.350;18.664;2023-08-12T12:47:26;1.70;;;1.60;;
18320;SDS011;54904;54.350;18.664;2023-08-12T12:49:53;2.20;;;1.73;;
18320;SDS011;54904;54.350;18.664;2023-08-12T12:52:20;3.90;;;2.00;;
18320;SDS011;54904;54.350;18.664;2023-08-12T12:54:47;2.47;;;2.00;;
18320;SDS011;54904;54.350;18.664;2023-08-12T12:57:14;4.05;;;2.15;;
18320;SDS011;54904;54.350;18.664;2023-08-12T12:59:41;2.10;;;2.00;;
18320;SDS011;54904;54.350;18.664;2023-08-12T13:02:09;1.67;;;1.58;;
18320;SDS011;54904;54.350;18.664;2023-08-12T13:04:36;4.60;;;1.90;;
18320;SDS011;54904;54.350;18.664;2023-08-12T13:07:03;1.98;;;1.85;;
18320;SDS011;54904;54.350;18.664;2023-08-12T13:09:30;2.50;;;2.25;;
18320;SDS011;54904;54.350;18.664;2023-08-12T13:11:57;2.22;;;2.03;;
18320;SDS011;54904;54.350;18.664;2023-08-12T13:14:24;2.60;;;2.08;;
18320;SDS011;54904;54.350;18.664;2023-08-12T13:16:51;1.70;;;1.60;;
18320;SDS011;54904;54.350;18.664;2023-08-12T13:19:20;2.35;;;2.00;;
18320;SDS011;54904;54.350;18.664;2023-08-12T13:21:47;2.00;;;1.80;;
18320;SDS011;54904;54.350;18.664;2023-08-12T13:24:14;2.30;;;2.10;;
18320;SDS011;54904;54.350;18.664;2023-08-12T13:26:41;1.98;;;1.67;;
18320;SDS011;54904;54.350;18.664;2023-08-12T13:29:08;2.00;;;1.90;;
18320;SDS011;54904;54.350;18.664;2023-08-12T13:31:35;1.98;;;1.88;;
18320;SDS011;54904;54.350;18.664;2023-08-12T13:34:02;2.15;;;2.00;;
18320;SDS011;54904;54.350;18.664;2023-08-12T13:36:31;1.92;;;1.80;;
18320;SDS011;54904;54.350;18.664;2023-08-12T13:38:58;5.10;;;2.03;;
18320;SDS011;54904;54.350;18.664;2023-08-12T13:41:25;1.67;;;1.38;;
18320;SDS011;54904;54.350;18.664;2023-08-12T13:43:52;1.52;;;1.42;;
18320;SDS011;54904;54.350;18.664;2023-08-12T13:46:19;1.52;;;1.40;;
18320;SDS011;54904;54.350;18.664;2023-08-12T13:48:46;4.88;;;1.42;;
18320;SDS011;54904;54.350;18.664;2023-08-12T13:51:13;1.50;;;1.40;;
18320;SDS011;54904;54.350;18.664;2023-08-12T13:53:42;1.60;;;1.50;;
18320;SDS011;54904;54.350;18.664;2023-08-12T13:56:09;1.63;;;1.38;;
18320;SDS011;54904;54.350;18.664;2023-08-12T13:58:36;1.88;;;1.20;;
18320;SDS011;54904;54.350;18.664;2023-08-12T14:01:03;1.75;;;1.63;;
18320;SDS011;54904;54.350;18.664;2023-08-12T14:03:31;2.22;;;1.60;;
18320;SDS011;54904;54.350;18.664;2023-08-12T14:05:59;3.10;;;2.17;;
18320;SDS011;54904;54.350;18.664;2023-08-12T14:08:26;1.50;;;1.40;;
18320;SDS011;54904;54.350;18.664;2023-08-12T14:10:54;1.40;;;1.30;;
18320;SDS011;54904;54.350;18.664;2023-08-12T14:13:21;1.70;;;1.60;;
18320;SDS011;54904;54.350;18.664;2023-08-12T14:15:48;1.35;;;1.30;;
18320;SDS011;54904;54.350;18.664;2023-08-12T14:18:15;1.08;;;1.08;;
18320;SDS011;54904;54.350;18.664;2023-08-12T14:20:42;1.38;;;1.27;;
18320;SDS011;54904;54.350;18.664;2023-08-12T14:23:09;3.80;;;1.52;;
18320;SDS011;54904;54.350;18.664;2023-08-12T14:25:38;1.77;;;1.67;;
18320;SDS011;54904;54.350;18.664;2023-08-12T14:28:06;1.50;;;1.40;;
18320;SDS011;54904;54.350;18.664;2023-08-12T14:30:33;2.15;;;1.30;;
18320;SDS011;54904;54.350;18.664;2023-08-12T14:33:06;1.58;;;1.48;;
18320;SDS011;54904;54.350;18.664;2023-08-12T14:35:33;1.33;;;1.20;;
18320;SDS011;54904;54.350;18.664;2023-08-12T14:38:01;1.45;;;1.35;;